createdAt,value
2022-11-07T00:05:34.349Z,130.52
2022-11-07T00:19:31.778Z,141.60
2022-11-07T00:25:44.975Z,194.98
2022-11-07T00:28:55.898Z,143.68
2022-11-07T00:32:05.175Z,143.05
2022-11-07T00:34:39.296Z,139.45
2022-11-07T00:37:48.810Z,159.07
2022-11-07T00:44:23.987Z,115.93
2022-11-07T00:51:07.052Z,122.70
2022-11-07T00:54:40.387Z,122.78
2022-11-07T00:58:03.415Z,117.43
2022-11-07T01:00:59.091Z,110.38
2022-11-07T01:03:47.562Z,147.45
2022-11-07T01:06:16.170Z,125.38
2022-11-07T01:08:45.292Z,145.07
2022-11-07T01:11:16.171Z,125.50
2022-11-07T01:13:44.804Z,142.57
2022-11-07T01:16:17.390Z,121.35
2022-11-07T01:18:45.677Z,136.07
2022-11-07T01:21:16.699Z,140.48
2022-11-07T01:23:47.374Z,147.68
2022-11-07T01:26:21.536Z,137.15
2022-11-07T01:28:50.205Z,141.02
2022-11-07T01:31:23.951Z,168.20
2022-11-07T01:34:09.264Z,152.40
2022-11-07T01:36:37.712Z,176.02
2022-11-07T01:39:07.009Z,158.80
2022-11-07T01:41:40.325Z,166.55
2022-11-07T01:44:41.844Z,164.77
2022-11-07T01:47:13.033Z,142.20
2022-11-07T01:49:44.191Z,146.38
2022-11-07T01:52:20.836Z,140.95
2022-11-07T01:54:53.321Z,171.32
2022-11-07T01:57:28.929Z,152.45
2022-11-07T02:00:00.626Z,141.25
2022-11-07T02:03:01.403Z,160.50
2022-11-07T02:12:25.278Z,132.85
2022-11-07T02:14:53.729Z,176.20
2022-11-07T02:17:22.706Z,143.50
2022-11-07T02:19:53.880Z,141.82
2022-11-07T02:22:33.130Z,156.23
2022-11-07T02:25:06.163Z,165.07
2022-11-07T02:27:36.229Z,122.88
2022-11-07T02:30:07.343Z,179.07
2022-11-07T02:32:35.738Z,170.40
2022-11-07T02:35:08.633Z,159.65
2022-11-07T02:37:40.145Z,158.23
2022-11-07T02:40:11.720Z,155.18
2022-11-07T02:42:46.451Z,164.57
2022-11-07T02:45:21.150Z,155.38
2022-11-07T02:47:49.570Z,133.75
2022-11-07T02:50:21.150Z,154.18
2022-11-07T02:52:49.873Z,157.73
2022-11-07T02:55:20.547Z,149.65
2022-11-07T02:58:08.570Z,168.95
2022-11-07T03:00:37.035Z,159.35
2022-11-07T03:03:05.709Z,161.35
2022-11-07T03:05:38.061Z,170.88
2022-11-07T03:08:09.562Z,180.45
2022-11-07T03:14:35.339Z,189.35
2022-11-07T03:17:04.313Z,199.55
2022-11-07T03:19:48.337Z,187.35
2022-11-07T03:22:16.675Z,191.20
2022-11-07T03:24:46.356Z,198.63
2022-11-07T03:27:17.713Z,191.18
2022-11-07T03:29:48.103Z,190.23
2022-11-07T03:32:19.158Z,207.77
2022-11-07T03:34:47.799Z,205.57
2022-11-07T03:37:16.387Z,214.65
2022-11-07T03:39:47.771Z,199.60
2022-11-07T03:42:28.279Z,200.02
2022-11-07T03:44:57.886Z,184.65
2022-11-07T03:47:26.369Z,194.55
2022-11-07T03:49:59.074Z,201.50
2022-11-07T03:52:30.963Z,224.07
2022-11-07T03:55:00.004Z,189.77
2022-11-07T03:57:30.465Z,198.50
2022-11-07T04:00:00.392Z,186.68
2022-11-07T04:02:29.215Z,215.60
2022-11-07T04:07:53.801Z,211.00
2022-11-07T04:10:27.646Z,228.50
2022-11-07T04:13:22.522Z,218.48
2022-11-07T04:16:24.518Z,224.95
2022-11-07T04:18:58.852Z,224.63
2022-11-07T04:21:32.543Z,246.88
2022-11-07T04:24:01.249Z,265.85
2022-11-07T04:26:50.616Z,238.95
2022-11-07T04:29:32.533Z,256.77
2022-11-07T04:32:05.335Z,252.93
2022-11-07T04:34:36.838Z,278.77
2022-11-07T04:37:05.277Z,254.82
2022-11-07T04:39:36.773Z,275.40
2022-11-07T04:42:09.171Z,275.33
2022-11-07T04:44:44.388Z,247.45
2022-11-07T04:47:30.254Z,268.40
2022-11-07T04:50:01.229Z,246.80
2022-11-07T04:52:29.834Z,233.82
2022-11-07T04:54:58.461Z,257.50
2022-11-07T04:57:29.434Z,259.25
2022-11-07T04:59:59.059Z,225.68
2022-11-07T05:02:46.245Z,225.13
2022-11-07T05:05:18.276Z,225.45
2022-11-07T05:07:49.184Z,271.20
2022-11-07T05:10:22.909Z,243.20
2022-11-07T05:12:51.460Z,225.20
2022-11-07T05:15:23.172Z,263.60
2022-11-07T05:17:52.922Z,218.00
2022-11-07T05:20:29.873Z,227.32
2022-11-07T05:23:15.822Z,229.70
2022-11-07T05:25:46.337Z,215.38
2022-11-07T05:28:16.489Z,222.57
2022-11-07T05:30:46.142Z,197.07
2022-11-07T05:33:18.585Z,225.93
2022-11-07T05:36:14.275Z,245.50
2022-11-07T05:38:47.231Z,241.02
2022-11-07T05:41:17.520Z,228.57
2022-11-07T05:43:46.759Z,235.52
2022-11-07T05:46:15.372Z,231.68
2022-11-07T05:49:00.564Z,228.50
2022-11-07T05:51:29.408Z,212.75
2022-11-07T05:54:01.986Z,222.05
2022-11-07T05:56:33.196Z,249.50
2022-11-07T05:59:05.744Z,222.82
2022-11-07T06:01:36.447Z,209.52
2022-11-07T06:04:27.037Z,222.40
2022-11-07T06:06:55.580Z,237.77
2022-11-07T06:09:23.974Z,225.52
2022-11-07T06:11:52.271Z,227.52
2022-11-07T06:14:20.681Z,232.43
2022-11-07T06:17:01.463Z,226.13
2022-11-07T06:19:35.258Z,217.80
2022-11-07T06:22:20.297Z,215.95
2022-11-07T06:24:48.542Z,231.65
2022-11-07T06:27:16.876Z,218.88
2022-11-07T06:29:51.405Z,236.52
2022-11-07T06:32:20.001Z,223.38
2022-11-07T06:35:04.752Z,212.15
2022-11-07T06:37:38.454Z,214.45
2022-11-07T06:40:10.524Z,222.35
2022-11-07T06:42:39.664Z,226.75
2022-11-07T06:45:11.515Z,201.75
2022-11-07T06:47:40.468Z,205.50
2022-11-07T06:50:38.668Z,191.88
2022-11-07T06:53:10.230Z,201.90
2022-11-07T06:55:43.279Z,213.25
2022-11-07T06:58:11.654Z,197.45
2022-11-07T07:00:40.851Z,194.13
2022-11-07T07:03:11.106Z,183.90
2022-11-07T07:05:39.896Z,241.43
2022-11-07T07:08:14.170Z,202.07
2022-11-07T07:10:47.414Z,188.00
2022-11-07T07:13:16.588Z,208.80
2022-11-07T07:15:53.932Z,182.57
2022-11-07T07:18:25.271Z,196.98
2022-11-07T07:21:02.831Z,207.43
2022-11-07T07:23:46.968Z,187.98
2022-11-07T07:26:20.023Z,192.27
2022-11-07T07:28:50.533Z,200.88
2022-11-07T07:34:07.975Z,198.77
2022-11-07T07:36:36.295Z,196.77
2022-11-07T07:39:06.017Z,183.45
2022-11-07T07:41:39.866Z,186.50
2022-11-07T07:44:08.969Z,202.60
2022-11-07T07:46:39.077Z,197.23
2022-11-07T07:49:07.431Z,199.32
2022-11-07T07:51:36.843Z,174.05
2022-11-07T07:54:06.717Z,168.60
2022-11-07T07:57:01.452Z,181.65
2022-11-07T07:59:30.012Z,175.00
2022-11-07T08:01:59.892Z,185.32
2022-11-07T08:04:28.728Z,174.50
2022-11-07T08:07:01.706Z,177.85
2022-11-07T08:09:36.552Z,153.30
2022-11-07T08:12:10.369Z,186.52
2022-11-07T08:14:38.855Z,161.50
2022-11-07T08:17:07.789Z,176.18
2022-11-07T08:19:39.016Z,162.30
2022-11-07T08:22:07.326Z,157.45
2022-11-07T08:24:39.685Z,165.95
2022-11-07T08:27:13.512Z,157.82
2022-11-07T08:29:43.802Z,153.02
2022-11-07T08:32:29.421Z,151.77
2022-11-07T08:34:58.711Z,148.73
2022-11-07T08:37:32.155Z,165.25
2022-11-07T08:40:13.431Z,154.70
2022-11-07T08:42:41.888Z,160.38
2022-11-07T08:45:11.146Z,159.50
2022-11-07T08:54:00.405Z,143.52
2022-11-07T08:56:31.007Z,142.40
2022-11-07T08:59:20.924Z,117.97
2022-11-07T09:05:25.165Z,134.65
2022-11-07T09:19:05.934Z,122.85
2022-11-07T09:25:17.307Z,122.38
2022-11-07T09:28:02.960Z,121.10
2022-11-07T09:30:40.887Z,111.40
2022-11-07T09:33:11.729Z,111.13
2022-11-07T09:36:31.059Z,109.03
2022-11-07T09:40:12.719Z,110.90
2022-11-07T09:46:36.077Z,110.28
2022-11-07T09:53:26.593Z,109.50
2022-11-07T09:56:04.102Z,88.20
2022-11-07T09:58:54.802Z,92.90
2022-11-07T10:02:13.180Z,83.70
2022-11-07T10:04:57.554Z,94.45
2022-11-07T10:08:11.178Z,77.75
2022-11-07T10:19:14.686Z,64.28
2022-11-07T10:22:14.668Z,74.82
2022-11-07T10:29:23.651Z,59.53
2022-11-07T10:36:04.667Z,68.53
2022-11-07T10:44:22.420Z,46.45
2022-11-07T10:48:10.608Z,53.08
2022-11-07T11:07:28.741Z,33.30
2022-11-07T16:51:04.013Z,24.10
2022-11-07T17:10:47.995Z,22.83
2022-11-07T19:02:53.111Z,18.55
2022-11-07T19:10:05.697Z,22.23
2022-11-07T19:16:47.376Z,29.45
2022-11-07T21:18:04.375Z,25.15
2022-11-07T22:30:14.802Z,34.08
2022-11-07T23:39:39.260Z,34.42
